createdAt,value
2023-03-06T00:01:27.089Z,22.50
2023-03-06T00:03:56.951Z,22.50
2023-03-06T00:06:26.897Z,22.40
2023-03-06T00:08:56.708Z,22.50
2023-03-06T00:11:26.417Z,22.50
2023-03-06T00:13:56.308Z,22.50
2023-03-06T00:16:26.122Z,22.50
2023-03-06T00:18:55.913Z,22.40
2023-03-06T00:21:25.957Z,22.50
2023-03-06T00:23:55.783Z,22.50
2023-03-06T00:26:25.620Z,22.50
2023-03-06T00:28:55.446Z,22.50
2023-03-06T00:31:25.449Z,22.60
2023-03-06T00:33:55.613Z,22.50
2023-03-06T00:36:25.541Z,22.60
2023-03-06T00:38:55.401Z,22.60
2023-03-06T00:41:26.744Z,22.60
2023-03-06T00:43:57.854Z,22.70
2023-03-06T00:46:27.898Z,22.70
2023-03-06T00:48:57.910Z,22.60
2023-03-06T00:51:27.800Z,22.60
2023-03-06T00:53:57.644Z,22.70
2023-03-06T00:56:27.613Z,22.70
2023-03-06T00:58:57.447Z,22.70
2023-03-06T01:01:27.293Z,22.70
2023-03-06T01:03:58.424Z,22.80
2023-03-06T01:06:28.307Z,22.80
2023-03-06T01:08:58.129Z,22.80
2023-03-06T01:11:27.978Z,22.80
2023-03-06T01:13:57.963Z,22.90
2023-03-06T01:16:27.941Z,22.90
2023-03-06T01:22:17.666Z,22.90
2023-03-06T01:28:11.365Z,23.00
2023-03-06T01:30:55.418Z,23.00
2023-03-06T01:33:30.987Z,23.10
2023-03-06T01:36:00.811Z,23.10
2023-03-06T01:38:33.706Z,23.10
2023-03-06T01:41:05.660Z,23.20
2023-03-06T01:43:36.764Z,23.10
2023-03-06T01:46:20.139Z,23.20
2023-03-06T01:48:51.050Z,23.30
2023-03-06T01:51:24.284Z,23.30
2023-03-06T01:53:57.539Z,23.40
2023-03-06T01:56:31.872Z,23.40
2023-03-06T01:59:03.798Z,23.50
2023-03-06T02:01:34.540Z,23.50
2023-03-06T02:04:07.966Z,23.50
2023-03-06T02:06:39.463Z,23.50
2023-03-06T02:09:10.631Z,23.50
2023-03-06T02:11:46.535Z,23.60
2023-03-06T02:14:16.643Z,23.60
2023-03-06T02:16:46.736Z,23.60
2023-03-06T02:19:34.522Z,23.60
2023-03-06T02:22:42.686Z,23.70
2023-03-06T02:24:43.055Z,23.80
2023-03-06T02:27:15.310Z,23.90
2023-03-06T02:29:45.670Z,23.90
2023-03-06T02:32:28.591Z,24.00
2023-03-06T02:38:26.549Z,24.10
2023-03-06T02:40:56.410Z,24.20
2023-03-06T02:43:27.659Z,24.30
2023-03-06T02:45:57.530Z,24.30
2023-03-06T02:48:33.917Z,24.40
2023-03-06T02:51:28.748Z,24.40
2023-03-06T02:56:49.395Z,24.60
2023-03-06T02:59:31.802Z,24.70
2023-03-06T03:02:02.057Z,24.80
2023-03-06T03:04:33.683Z,24.90
2023-03-06T03:10:22.943Z,25.10
2023-03-06T03:12:53.366Z,25.20
2023-03-06T03:15:23.287Z,25.30
2023-03-06T03:17:53.124Z,25.30
2023-03-06T03:30:27.289Z,25.70
2023-03-06T03:33:10.580Z,25.80
2023-03-06T03:35:40.532Z,25.90
2023-03-06T03:38:10.366Z,26.00
2023-03-06T03:40:40.898Z,26.10
2023-03-06T03:43:10.738Z,26.20
2023-03-06T03:45:41.997Z,26.30
2023-03-06T03:48:11.958Z,26.40
2023-03-06T03:50:41.793Z,26.60
2023-03-06T03:53:11.668Z,26.70
2023-03-06T03:55:41.473Z,26.80
2023-03-06T03:58:11.390Z,26.90
2023-03-06T04:00:41.263Z,27.00
2023-03-06T04:04:06.009Z,27.10
2023-03-06T04:06:36.045Z,27.20
2023-03-06T04:09:06.263Z,27.30
2023-03-06T04:11:39.254Z,27.40
2023-03-06T04:14:10.504Z,27.50
2023-03-06T04:16:40.383Z,27.70
2023-03-06T04:22:18.743Z,27.90
2023-03-06T04:24:49.850Z,27.90
2023-03-06T04:27:21.388Z,28.00
2023-03-06T04:29:51.638Z,28.00
2023-03-06T04:32:21.706Z,28.00
2023-03-06T04:34:51.945Z,28.10
2023-03-06T04:37:26.012Z,28.20
2023-03-06T04:39:55.881Z,28.20
2023-03-06T04:42:26.309Z,28.30
2023-03-06T04:44:59.012Z,28.30
2023-03-06T04:47:29.118Z,28.30
2023-03-06T04:53:00.156Z,28.40
2023-03-06T04:55:30.493Z,28.40
2023-03-06T04:58:02.339Z,28.50
2023-03-06T05:00:36.876Z,28.60
2023-03-06T05:03:06.867Z,28.70
2023-03-06T05:05:36.725Z,28.70
2023-03-06T05:08:06.965Z,28.80
2023-03-06T05:10:50.370Z,28.80
2023-03-06T05:13:20.631Z,28.80
2023-03-06T05:15:53.298Z,28.90
2023-03-06T05:21:23.477Z,29.00
2023-03-06T05:23:54.630Z,29.00
2023-03-06T05:26:24.442Z,29.00
2023-03-06T05:28:56.714Z,29.00
2023-03-06T05:32:06.590Z,29.00
2023-03-06T05:40:42.450Z,29.10
2023-03-06T05:43:43.156Z,29.10
2023-03-06T05:50:03.879Z,29.20
2023-03-06T05:52:55.165Z,29.20
2023-03-06T05:55:25.401Z,29.20
2023-03-06T05:58:05.560Z,29.30
2023-03-06T06:00:39.772Z,29.40
2023-03-06T06:03:09.844Z,29.40
2023-03-06T06:05:46.625Z,29.30
2023-03-06T06:08:16.444Z,29.40
2023-03-06T06:10:46.164Z,29.50
2023-03-06T06:13:16.010Z,29.50
2023-03-06T06:15:45.968Z,29.60
2023-03-06T06:18:17.850Z,29.60
2023-03-06T06:20:47.186Z,29.60
2023-03-06T06:23:17.493Z,29.70
2023-03-06T06:25:47.298Z,29.70
2023-03-06T06:28:27.305Z,29.60
2023-03-06T06:30:57.287Z,29.70
2023-03-06T06:33:27.172Z,29.70
2023-03-06T06:35:58.190Z,29.70
2023-03-06T06:38:28.023Z,29.80
2023-03-06T06:41:27.125Z,29.80
2023-03-06T06:43:30.341Z,29.80
2023-03-06T06:46:31.495Z,29.90
2023-03-06T06:48:32.210Z,29.90
2023-03-06T06:51:07.259Z,29.90
2023-03-06T06:53:36.985Z,29.90
2023-03-06T06:56:07.162Z,29.90
2023-03-06T06:58:36.987Z,29.90
2023-03-06T07:01:09.321Z,29.90
2023-03-06T07:04:09.276Z,29.90
2023-03-06T07:06:38.681Z,30.00
2023-03-06T07:12:20.861Z,30.00
2023-03-06T07:15:10.127Z,30.00
2023-03-06T07:17:41.876Z,30.00
2023-03-06T07:20:12.229Z,30.00
2023-03-06T07:22:50.705Z,30.00
2023-03-06T07:25:13.428Z,30.00
2023-03-06T07:27:52.806Z,29.90
2023-03-06T07:33:29.014Z,29.90
2023-03-06T07:35:59.213Z,29.90
2023-03-06T07:38:31.857Z,29.80
2023-03-06T07:43:54.687Z,29.80
2023-03-06T07:46:31.887Z,29.80
2023-03-06T07:49:05.015Z,29.80
2023-03-06T07:51:36.022Z,29.80
2023-03-06T07:54:08.862Z,29.80
2023-03-06T07:56:38.762Z,29.80
2023-03-06T07:59:08.595Z,29.80
2023-03-06T08:01:39.748Z,29.90
2023-03-06T08:04:09.708Z,29.80
2023-03-06T08:06:39.541Z,29.80
2023-03-06T08:09:10.092Z,29.80
2023-03-06T08:11:39.954Z,29.80
2023-03-06T08:14:09.905Z,29.80
2023-03-06T08:16:41.054Z,29.80
2023-03-06T08:19:19.510Z,29.90
2023-03-06T08:22:01.845Z,29.90
2023-03-06T08:24:31.821Z,29.80
2023-03-06T08:27:07.986Z,29.80
2023-03-06T08:29:48.348Z,29.80
2023-03-06T08:32:19.280Z,29.80
2023-03-06T08:34:49.340Z,29.70
2023-03-06T08:37:19.214Z,29.80
2023-03-06T08:40:13.835Z,29.80
2023-03-06T08:42:43.677Z,29.80
2023-03-06T08:45:41.806Z,29.80
2023-03-06T08:48:12.519Z,29.80
2023-03-06T08:50:43.103Z,29.80
2023-03-06T08:53:40.387Z,29.80
2023-03-06T08:59:03.133Z,29.80
2023-03-06T09:01:36.734Z,29.70
2023-03-06T09:04:08.921Z,29.70
2023-03-06T09:06:39.990Z,29.70
2023-03-06T09:09:10.202Z,29.60
2023-03-06T09:11:41.709Z,29.60
2023-03-06T09:14:11.537Z,29.60
2023-03-06T09:16:41.555Z,29.60
2023-03-06T09:19:11.358Z,29.60
2023-03-06T09:21:41.335Z,29.60
2023-03-06T09:24:11.552Z,29.60
2023-03-06T09:26:45.923Z,29.60
2023-03-06T09:29:13.614Z,29.50
2023-03-06T09:31:43.544Z,29.40
2023-03-06T09:34:13.373Z,29.50
2023-03-06T09:36:56.735Z,29.40
2023-03-06T09:39:22.030Z,29.40
2023-03-06T09:41:52.220Z,29.40
2023-03-06T09:44:29.766Z,29.40
2023-03-06T09:47:03.519Z,29.30
2023-03-06T09:49:50.882Z,29.30
2023-03-06T09:52:34.040Z,29.30
2023-03-06T09:55:05.061Z,29.20
2023-03-06T09:57:36.343Z,29.30
2023-03-06T10:00:16.607Z,29.20
2023-03-06T10:02:50.796Z,29.20
2023-03-06T10:05:37.287Z,29.20
2023-03-06T10:08:23.993Z,29.10
2023-03-06T10:11:12.946Z,29.10
2023-03-06T10:16:38.436Z,29.10
2023-03-06T10:19:09.481Z,29.10
2023-03-06T10:21:57.088Z,29.00
2023-03-06T10:24:46.427Z,29.00
2023-03-06T10:27:24.467Z,29.00
2023-03-06T10:30:03.053Z,28.90
2023-03-06T10:32:42.829Z,28.90
2023-03-06T10:35:03.326Z,28.90
2023-03-06T10:37:33.593Z,28.90
2023-03-06T10:40:05.132Z,28.80
2023-03-06T10:42:43.158Z,28.80
2023-03-06T10:45:17.288Z,28.80
2023-03-06T10:47:47.617Z,28.80
2023-03-06T10:50:21.862Z,28.70
2023-03-06T10:53:02.731Z,28.70
2023-03-06T10:55:46.127Z,28.70
2023-03-06T11:01:19.366Z,28.70
2023-03-06T11:03:50.811Z,28.60
2023-03-06T11:06:38.322Z,28.60
2023-03-06T11:09:50.391Z,28.60
2023-03-06T11:12:29.729Z,28.50
2023-03-06T11:18:05.547Z,28.50
2023-03-06T11:20:50.424Z,28.40
2023-03-06T11:23:11.814Z,28.40
2023-03-06T11:25:58.076Z,28.40
2023-03-06T11:28:29.178Z,28.40
2023-03-06T11:31:03.357Z,28.40
2023-03-06T11:33:47.526Z,28.30
2023-03-06T11:36:18.538Z,28.30
2023-03-06T11:41:50.705Z,28.30
2023-03-06T11:44:27.623Z,28.20
2023-03-06T11:47:15.162Z,28.20
2023-03-06T11:49:49.132Z,28.20
2023-03-06T11:52:26.112Z,28.20
2023-03-06T11:55:04.359Z,28.20
2023-03-06T11:57:35.386Z,28.10
2023-03-06T12:00:06.585Z,28.10
2023-03-06T12:02:38.880Z,28.10
2023-03-06T12:05:26.769Z,28.10
2023-03-06T12:08:00.760Z,28.10
2023-03-06T12:10:31.970Z,28.10
2023-03-06T12:13:08.826Z,28.10
2023-03-06T12:15:45.067Z,28.00
2023-03-06T12:18:32.465Z,28.00
2023-03-06T12:21:06.794Z,28.00
2023-03-06T12:23:40.909Z,28.00
2023-03-06T12:26:21.009Z,28.00
2023-03-06T12:28:52.379Z,28.00
2023-03-06T12:31:24.675Z,27.90
2023-03-06T12:33:59.638Z,27.90
2023-03-06T12:36:30.673Z,27.90
2023-03-06T12:39:02.396Z,27.90
2023-03-06T12:41:49.710Z,27.90
2023-03-06T12:57:31.882Z,27.70
2023-03-06T13:00:02.929Z,27.70
2023-03-06T13:02:47.901Z,27.70
2023-03-06T13:08:54.021Z,27.70
2023-03-06T13:11:41.290Z,27.70
2023-03-06T13:14:28.713Z,27.70
2023-03-06T13:16:59.944Z,27.70
2023-03-06T13:19:29.951Z,27.60
2023-03-06T13:22:01.303Z,27.70
2023-03-06T13:24:37.984Z,27.70
2023-03-06T13:27:11.121Z,27.60
2023-03-06T13:29:42.135Z,27.60
2023-03-06T13:32:19.111Z,27.60
2023-03-06T13:34:51.113Z,27.60
2023-03-06T13:47:55.769Z,27.50
2023-03-06T13:50:21.714Z,27.40
2023-03-06T13:53:07.955Z,27.40
2023-03-06T13:55:55.107Z,27.40
2023-03-06T13:58:31.778Z,27.30
2023-03-06T14:01:09.630Z,27.30
2023-03-06T14:03:49.673Z,27.30
2023-03-06T14:06:38.774Z,27.30
2023-03-06T14:09:09.934Z,27.20
2023-03-06T14:11:49.863Z,27.20
2023-03-06T14:14:20.242Z,27.20
2023-03-06T14:16:51.304Z,27.20
2023-03-06T14:19:27.455Z,27.20
2023-03-06T14:22:06.901Z,27.20
2023-03-06T14:24:51.286Z,27.10
2023-03-06T14:27:21.439Z,27.20
2023-03-06T14:29:52.231Z,27.10
2023-03-06T14:32:23.338Z,27.10
2023-03-06T14:34:53.916Z,27.10
2023-03-06T14:40:47.219Z,27.00
2023-03-06T14:43:32.834Z,26.90
2023-03-06T14:46:31.685Z,26.90
2023-03-06T14:49:04.601Z,26.90
2023-03-06T14:51:35.024Z,26.80
2023-03-06T14:57:32.470Z,26.70
2023-03-06T15:00:23.838Z,26.60
2023-03-06T15:02:58.539Z,26.60
2023-03-06T15:11:27.684Z,26.60
2023-03-06T15:37:27.901Z,26.50
2023-03-06T15:40:05.573Z,26.30
2023-03-06T15:42:36.562Z,26.30
2023-03-06T15:53:50.283Z,26.30
2023-03-06T15:56:22.968Z,26.20
2023-03-06T15:58:53.616Z,26.20
2023-03-06T16:04:19.893Z,26.20
2023-03-06T16:09:47.159Z,26.10
2023-03-06T16:12:18.592Z,26.10
2023-03-06T16:14:49.831Z,26.10
2023-03-06T16:17:33.984Z,26.10
2023-03-06T16:20:03.946Z,26.00
2023-03-06T16:22:33.890Z,26.00
2023-03-06T16:25:07.221Z,26.00
2023-03-06T16:27:37.120Z,25.90
2023-03-06T16:32:58.462Z,25.90
2023-03-06T16:35:40.548Z,25.90
2023-03-06T16:38:11.630Z,25.90
2023-03-06T16:43:31.409Z,25.90
2023-03-06T16:46:01.464Z,25.80
2023-03-06T16:48:31.450Z,25.90
2023-03-06T16:53:49.508Z,25.90
2023-03-06T16:56:28.061Z,25.90
2023-03-06T16:58:58.820Z,25.90
2023-03-06T17:01:31.289Z,25.80
2023-03-06T17:04:15.253Z,25.80
2023-03-06T17:06:39.064Z,25.80
2023-03-06T17:09:20.290Z,25.80
2023-03-06T17:11:50.161Z,25.80
2023-03-06T17:14:21.439Z,25.80
2023-03-06T17:16:51.347Z,25.80
2023-03-06T17:19:22.557Z,25.80
2023-03-06T17:21:52.400Z,25.80
2023-03-06T17:24:31.499Z,25.80
2023-03-06T17:27:00.754Z,25.80
2023-03-06T17:29:30.600Z,25.70
2023-03-06T17:32:01.524Z,25.80
2023-03-06T17:34:31.391Z,25.70
2023-03-06T17:37:26.415Z,25.70
2023-03-06T17:39:56.400Z,25.60
2023-03-06T17:42:44.349Z,25.50
2023-03-06T17:45:16.186Z,25.50
2023-03-06T17:47:56.535Z,25.40
2023-03-06T17:50:57.687Z,25.50
2023-03-06T17:53:26.366Z,25.50
2023-03-06T17:58:50.305Z,25.50
2023-03-06T18:01:53.325Z,25.50
2023-03-06T18:04:19.887Z,25.50
2023-03-06T18:06:53.021Z,25.50
2023-03-06T18:15:11.012Z,25.50
2023-03-06T18:18:22.058Z,25.40
2023-03-06T18:22:59.516Z,25.30
2023-03-06T18:25:29.186Z,25.30
2023-03-06T18:27:59.488Z,25.30
2023-03-06T18:30:29.896Z,25.30
2023-03-06T18:33:13.685Z,25.20
2023-03-06T18:35:51.111Z,25.20
2023-03-06T18:38:22.207Z,25.20
2023-03-06T18:40:52.252Z,25.10
2023-03-06T18:43:29.941Z,25.10
2023-03-06T18:46:00.004Z,25.10
2023-03-06T18:48:36.500Z,25.00
2023-03-06T18:51:08.409Z,25.00
2023-03-06T18:53:38.590Z,25.00
2023-03-06T18:56:10.414Z,24.90
2023-03-06T18:58:41.424Z,24.90
2023-03-06T19:01:13.818Z,24.80
2023-03-06T19:03:43.778Z,24.80
2023-03-06T19:06:14.695Z,24.80
2023-03-06T19:08:44.623Z,24.70
2023-03-06T19:11:15.490Z,24.70
2023-03-06T19:16:35.128Z,24.60
2023-03-06T19:19:05.114Z,24.60
2023-03-06T19:21:35.072Z,24.50
2023-03-06T19:24:05.339Z,24.50
2023-03-06T19:26:35.161Z,24.50
2023-03-06T19:29:05.082Z,24.50
2023-03-06T19:31:34.962Z,24.40
2023-03-06T19:34:05.001Z,24.40
2023-03-06T19:36:35.344Z,24.40
2023-03-06T19:39:06.481Z,24.40
2023-03-06T19:41:36.435Z,24.40
2023-03-06T19:44:06.903Z,24.40
2023-03-06T19:47:03.837Z,24.30
2023-03-06T19:49:33.588Z,24.30
2023-03-06T19:52:03.432Z,24.30
2023-03-06T19:54:33.267Z,24.30
2023-03-06T19:57:03.089Z,24.30
2023-03-06T19:59:33.292Z,24.20
2023-03-06T20:02:03.179Z,24.20
2023-03-06T20:04:36.391Z,24.20
2023-03-06T20:07:09.300Z,24.20
2023-03-06T20:09:39.152Z,24.20
2023-03-06T20:12:09.202Z,24.20
2023-03-06T20:14:39.086Z,24.20
2023-03-06T20:17:08.948Z,24.20
2023-03-06T20:19:39.083Z,24.10
2023-03-06T20:22:08.898Z,24.10
2023-03-06T20:24:38.682Z,24.10
2023-03-06T20:27:08.412Z,24.10
2023-03-06T20:29:38.294Z,24.00
2023-03-06T20:32:08.605Z,24.10
2023-03-06T20:34:40.286Z,24.00
2023-03-06T20:37:10.872Z,24.00
2023-03-06T20:39:40.719Z,24.00
2023-03-06T20:42:10.562Z,24.00
2023-03-06T20:44:40.507Z,24.10
2023-03-06T20:47:10.647Z,23.90
2023-03-06T20:49:40.585Z,23.90
2023-03-06T20:52:10.457Z,23.90
2023-03-06T20:54:40.438Z,23.90
2023-03-06T20:57:10.347Z,23.90
2023-03-06T20:59:40.359Z,23.80
2023-03-06T21:02:11.648Z,23.90
2023-03-06T21:04:42.039Z,23.90
2023-03-06T21:07:11.928Z,23.90
2023-03-06T21:09:42.599Z,23.90
2023-03-06T21:12:12.548Z,23.90
2023-03-06T21:14:42.463Z,23.90
2023-03-06T21:17:13.813Z,23.90
2023-03-06T21:19:43.730Z,23.90
2023-03-06T21:22:13.636Z,23.80
2023-03-06T21:24:43.947Z,23.70
2023-03-06T21:37:23.422Z,23.80
2023-03-06T21:39:53.282Z,23.60
2023-03-06T21:42:23.297Z,23.60
2023-03-06T21:44:53.215Z,23.50
2023-03-06T21:47:23.072Z,23.60
2023-03-06T21:49:52.864Z,23.50
2023-03-06T21:52:22.738Z,23.40
2023-03-06T21:54:52.591Z,23.40
2023-03-06T21:57:22.480Z,23.40
2023-03-06T21:59:52.397Z,23.40
2023-03-06T22:04:52.251Z,23.30
2023-03-06T22:07:22.460Z,23.30
2023-03-06T22:09:53.497Z,23.30
2023-03-06T22:12:23.963Z,23.30
2023-03-06T22:14:53.853Z,23.20
2023-03-06T22:17:23.893Z,23.20
2023-03-06T22:19:53.714Z,23.20
2023-03-06T22:22:23.565Z,23.20
2023-03-06T22:24:53.601Z,23.10
2023-03-06T22:27:23.387Z,23.10
2023-03-06T22:29:54.296Z,23.10
2023-03-06T22:32:24.401Z,23.10
2023-03-06T22:34:54.293Z,23.10
2023-03-06T22:37:24.148Z,23.10
2023-03-06T22:39:53.995Z,23.10
2023-03-06T22:42:23.820Z,23.00
2023-03-06T22:44:53.683Z,23.00
2023-03-06T22:47:23.540Z,23.00
2023-03-06T22:49:53.447Z,23.00
2023-03-06T22:52:23.289Z,23.00
2023-03-06T22:54:54.229Z,23.00
2023-03-06T22:57:24.043Z,22.90
2023-03-06T22:59:53.892Z,22.90
2023-03-06T23:02:24.017Z,22.90
2023-03-06T23:04:54.269Z,22.90
2023-03-06T23:07:24.092Z,22.90
2023-03-06T23:09:53.951Z,22.90
2023-03-06T23:12:23.816Z,22.90
2023-03-06T23:14:53.658Z,22.80
2023-03-06T23:17:23.456Z,22.80
2023-03-06T23:19:54.173Z,22.90
2023-03-06T23:22:24.013Z,22.80
2023-03-06T23:24:53.842Z,22.70
2023-03-06T23:27:23.687Z,22.70
2023-03-06T23:29:54.826Z,22.70
2023-03-06T23:32:24.924Z,22.70
2023-03-06T23:34:54.767Z,22.70
2023-03-06T23:37:24.622Z,22.70
2023-03-06T23:39:54.600Z,22.70
2023-03-06T23:42:24.611Z,22.70
2023-03-06T23:44:54.475Z,22.70
2023-03-06T23:47:25.518Z,22.60
2023-03-06T23:49:55.374Z,22.70
2023-03-06T23:52:25.144Z,22.70
2023-03-06T23:54:55.242Z,22.60
2023-03-06T23:57:25.155Z,22.70
2023-03-06T23:59:55.054Z,22.70
